createdAt,value
2017-11-25T00:00:46.163Z,968.45
2017-11-25T00:01:46.166Z,968.44
2017-11-25T00:02:46.149Z,968.39
2017-11-25T00:03:46.132Z,968.35
2017-11-25T00:04:46.140Z,968.37
2017-11-25T00:05:46.110Z,968.32
2017-11-25T00:06:46.099Z,968.26
2017-11-25T00:07:46.096Z,968.25
2017-11-25T00:08:46.086Z,968.21
2017-11-25T00:09:46.076Z,968.22
2017-11-25T00:10:46.070Z,968.16
2017-11-25T00:11:46.049Z,968.15
2017-11-25T00:12:46.049Z,968.19
2017-11-25T00:13:46.033Z,968.19
2017-11-25T00:14:46.025Z,968.18
2017-11-25T00:15:46.013Z,968.14
2017-11-25T00:16:46.000Z,968.13
2017-11-25T00:17:45.988Z,968.11
2017-11-25T00:18:45.975Z,968.10
2017-11-25T00:19:45.972Z,968.08
2017-11-25T00:20:45.964Z,968.10
2017-11-25T00:21:45.961Z,968.13
2017-11-25T00:22:45.935Z,968.06
2017-11-25T00:23:45.927Z,968.11
2017-11-25T00:24:45.927Z,968.11
2017-11-25T00:25:45.913Z,968.07
2017-11-25T00:26:45.893Z,968.05
2017-11-25T00:27:45.883Z,968.00
2017-11-25T00:28:45.874Z,968.00
2017-11-25T00:29:45.872Z,967.98
2017-11-25T00:30:45.852Z,968.01
2017-11-25T00:31:45.847Z,967.98
2017-11-25T00:32:45.841Z,968.01
2017-11-25T00:33:45.822Z,968.02
2017-11-25T00:34:45.812Z,967.93
2017-11-25T00:35:45.806Z,967.92
2017-11-25T00:36:45.804Z,967.86
2017-11-25T00:37:45.789Z,967.85
2017-11-25T00:38:45.791Z,967.83
2017-11-25T00:39:45.760Z,967.80
2017-11-25T00:40:45.759Z,967.82
2017-11-25T00:41:45.746Z,967.83
2017-11-25T00:42:45.736Z,967.82
2017-11-25T00:43:45.727Z,967.84
2017-11-25T00:44:45.715Z,967.82
2017-11-25T00:45:45.702Z,967.82
2017-11-25T00:46:45.697Z,967.81
2017-11-25T00:47:45.678Z,967.82
2017-11-25T00:48:45.668Z,967.79
2017-11-25T00:49:45.671Z,967.76
2017-11-25T00:50:45.650Z,967.75
2017-11-25T00:51:45.644Z,967.69
2017-11-25T00:52:45.626Z,967.67
2017-11-25T00:53:45.625Z,967.70
2017-11-25T00:54:45.605Z,967.69
2017-11-25T00:55:45.599Z,967.67
2017-11-25T00:56:45.584Z,967.66
2017-11-25T00:57:45.577Z,967.63
2017-11-25T00:58:45.575Z,967.65
2017-11-25T00:59:45.556Z,967.67
2017-11-25T01:00:45.550Z,967.67
2017-11-25T01:01:45.533Z,967.66
2017-11-25T01:02:45.528Z,967.59
2017-11-25T01:03:45.512Z,967.68
2017-11-25T01:04:45.508Z,967.66
2017-11-25T01:05:45.506Z,967.65
2017-11-25T01:06:45.479Z,967.62
2017-11-25T01:07:45.477Z,967.59
2017-11-25T01:08:45.465Z,967.57
2017-11-25T01:09:45.456Z,967.54
2017-11-25T01:10:45.439Z,967.54
2017-11-25T01:11:45.438Z,967.51
2017-11-25T01:12:45.423Z,967.51
2017-11-25T01:13:45.407Z,967.47
2017-11-25T01:14:45.396Z,967.49
2017-11-25T01:15:45.388Z,967.47
2017-11-25T01:16:45.386Z,967.40
2017-11-25T01:17:45.368Z,967.42
2017-11-25T01:18:45.365Z,967.37
2017-11-25T01:19:45.352Z,967.39
2017-11-25T01:20:45.335Z,967.36
2017-11-25T01:21:45.330Z,967.37
2017-11-25T01:22:45.325Z,967.38
2017-11-25T01:23:45.304Z,967.37
2017-11-25T01:24:45.304Z,967.33
2017-11-25T01:25:45.286Z,967.35
2017-11-25T01:26:45.287Z,967.29
2017-11-25T01:27:45.272Z,967.30
2017-11-25T01:28:45.263Z,967.32
2017-11-25T01:29:45.248Z,967.25
2017-11-25T01:30:45.231Z,967.32
2017-11-25T01:31:45.220Z,967.25
2017-11-25T01:32:45.213Z,967.20
2017-11-25T01:33:45.209Z,967.19
2017-11-25T01:34:45.190Z,967.15
2017-11-25T01:35:45.179Z,967.13
2017-11-25T01:36:45.170Z,967.12
2017-11-25T01:37:45.159Z,967.09
2017-11-25T01:38:45.149Z,967.05
2017-11-25T01:39:45.139Z,966.98
2017-11-25T01:40:45.133Z,966.95
2017-11-25T01:41:45.121Z,966.97
2017-11-25T01:42:45.117Z,966.96
2017-11-25T01:43:45.099Z,966.93
2017-11-25T01:44:45.097Z,966.91
2017-11-25T01:45:45.090Z,966.90
2017-11-25T01:46:45.075Z,966.87
2017-11-25T01:47:45.057Z,966.83
2017-11-25T01:48:45.047Z,966.81
2017-11-25T01:49:45.037Z,966.79
2017-11-25T01:50:45.036Z,966.73
2017-11-25T01:51:45.016Z,966.77
2017-11-25T01:52:45.007Z,966.71
2017-11-25T01:53:44.998Z,966.70
2017-11-25T01:54:44.984Z,966.65
2017-11-25T01:55:44.976Z,966.64
2017-11-25T01:56:44.963Z,966.66
2017-11-25T01:57:44.958Z,966.65
2017-11-25T01:58:44.951Z,966.60
2017-11-25T01:59:44.937Z,966.60
2017-11-25T02:00:44.921Z,966.59
2017-11-25T02:01:44.921Z,966.58
2017-11-25T02:02:44.910Z,966.61
2017-11-25T02:03:44.892Z,966.62
2017-11-25T02:04:44.887Z,966.60
2017-11-25T02:05:44.873Z,966.61
2017-11-25T02:06:44.860Z,966.61
2017-11-25T02:07:44.851Z,966.65
2017-11-25T02:08:44.839Z,966.60
2017-11-25T02:09:44.839Z,966.51
2017-11-25T02:10:44.818Z,966.52
2017-11-25T02:11:44.813Z,966.50
2017-11-25T02:12:44.809Z,966.47
2017-11-25T02:13:44.795Z,966.41
2017-11-25T02:14:44.781Z,966.39
2017-11-25T02:15:44.771Z,966.38
2017-11-25T02:16:44.756Z,966.37
2017-11-25T02:17:44.744Z,966.36
2017-11-25T02:18:44.742Z,966.39
2017-11-25T02:19:44.723Z,966.31
2017-11-25T02:20:44.713Z,966.29
2017-11-25T02:21:44.703Z,966.25
2017-11-25T02:22:44.699Z,966.21
2017-11-25T02:23:44.684Z,966.20
2017-11-25T02:24:44.673Z,966.21
2017-11-25T02:25:44.668Z,966.15
2017-11-25T02:26:44.649Z,966.18
2017-11-25T02:27:44.642Z,966.22
2017-11-25T02:28:44.643Z,966.23
2017-11-25T02:29:44.620Z,966.25
2017-11-25T02:30:44.615Z,966.21
2017-11-25T02:31:44.600Z,966.17
2017-11-25T02:32:44.594Z,966.21
2017-11-25T02:33:44.581Z,966.14
2017-11-25T02:34:44.567Z,966.09
2017-11-25T02:35:44.568Z,966.04
2017-11-25T02:36:44.560Z,965.99
2017-11-25T02:37:44.546Z,966.10
2017-11-25T02:38:44.526Z,966.05
2017-11-25T02:39:44.516Z,966.05
2017-11-25T02:40:44.512Z,965.98
2017-11-25T02:41:44.494Z,965.99
2017-11-25T02:42:44.492Z,965.96
2017-11-25T02:43:44.478Z,965.97
2017-11-25T02:44:44.461Z,965.98
2017-11-25T02:45:44.462Z,966.03
2017-11-25T02:46:44.449Z,966.02
2017-11-25T02:47:44.432Z,966.02
2017-11-25T02:48:44.425Z,966.01
2017-11-25T02:49:44.416Z,965.99
2017-11-25T02:50:44.414Z,965.93
2017-11-25T02:51:44.389Z,965.83
2017-11-25T02:52:44.387Z,965.82
2017-11-25T02:53:44.368Z,965.85
2017-11-25T02:54:44.371Z,965.84
2017-11-25T02:55:44.348Z,965.77
2017-11-25T02:56:44.343Z,965.75
2017-11-25T02:57:44.325Z,965.66
2017-11-25T02:58:44.314Z,965.67
2017-11-25T02:59:44.305Z,965.69
2017-11-25T03:00:44.295Z,965.57
2017-11-25T03:01:44.290Z,965.56
2017-11-25T03:02:44.278Z,965.53
2017-11-25T03:03:44.262Z,965.43
2017-11-25T03:04:44.265Z,965.42
2017-11-25T03:05:44.248Z,965.38
2017-11-25T03:06:44.237Z,965.32
2017-11-25T03:07:44.221Z,965.31
2017-11-25T03:08:44.216Z,965.28
2017-11-25T03:09:44.209Z,965.31
2017-11-25T03:10:44.189Z,965.36
2017-11-25T03:11:44.185Z,965.28
2017-11-25T03:12:44.183Z,965.32
2017-11-25T03:13:44.168Z,965.31
2017-11-25T03:14:44.156Z,965.34
2017-11-25T03:15:44.143Z,965.30
2017-11-25T03:16:44.134Z,965.31
2017-11-25T03:17:44.122Z,965.32
2017-11-25T03:18:44.106Z,965.27
2017-11-25T03:19:44.092Z,965.22
2017-11-25T03:20:44.084Z,965.21
2017-11-25T03:21:44.077Z,965.12
2017-11-25T03:22:44.070Z,965.09
2017-11-25T03:23:44.050Z,965.08
2017-11-25T03:24:44.041Z,965.06
2017-11-25T03:25:44.032Z,965.10
2017-11-25T03:26:44.025Z,965.06
2017-11-25T03:27:44.014Z,965.09
2017-11-25T03:28:44.002Z,965.08
2017-11-25T03:29:43.995Z,965.08
2017-11-25T03:30:43.990Z,965.02
2017-11-25T03:31:43.978Z,964.96
2017-11-25T03:32:43.961Z,964.85
2017-11-25T03:33:43.947Z,964.86
2017-11-25T03:34:43.935Z,964.75
2017-11-25T03:35:43.930Z,964.72
2017-11-25T03:36:43.914Z,964.76
2017-11-25T03:37:43.906Z,964.70
2017-11-25T03:38:43.894Z,964.66
2017-11-25T03:39:43.881Z,964.65
2017-11-25T03:40:43.873Z,964.58
2017-11-25T03:41:43.870Z,964.59
2017-11-25T03:42:43.851Z,964.63
2017-11-25T03:43:43.846Z,964.66
2017-11-25T03:44:43.837Z,964.59
2017-11-25T03:45:43.822Z,964.62
2017-11-25T03:46:43.806Z,964.60
2017-11-25T03:47:43.797Z,964.55
2017-11-25T03:48:43.787Z,964.51
2017-11-25T03:49:43.783Z,964.52
2017-11-25T03:50:43.763Z,964.47
2017-11-25T03:51:43.754Z,964.44
2017-11-25T03:52:43.743Z,964.49
2017-11-25T03:53:43.742Z,964.50
2017-11-25T03:54:43.721Z,964.45
2017-11-25T03:55:43.712Z,964.41
2017-11-25T03:56:43.701Z,964.39
2017-11-25T03:57:43.692Z,964.34
2017-11-25T03:58:43.680Z,964.28
2017-11-25T03:59:43.667Z,964.21
2017-11-25T04:00:43.656Z,964.21
2017-11-25T04:01:43.648Z,964.20
2017-11-25T04:02:43.648Z,964.19
2017-11-25T04:03:43.629Z,964.22
2017-11-25T04:04:43.616Z,964.21
2017-11-25T04:05:43.611Z,964.18
2017-11-25T04:06:43.599Z,964.24
2017-11-25T04:07:43.582Z,964.20
2017-11-25T04:08:43.571Z,964.22
2017-11-25T04:09:43.561Z,964.22
2017-11-25T04:10:43.551Z,964.18
2017-11-25T04:11:43.538Z,964.16
2017-11-25T04:12:43.531Z,964.13
2017-11-25T04:13:43.519Z,964.12
2017-11-25T04:14:43.513Z,964.15
2017-11-25T04:15:43.494Z,964.11
2017-11-25T04:16:43.484Z,964.11
2017-11-25T04:17:43.475Z,964.07
2017-11-25T04:18:43.461Z,964.07
2017-11-25T04:19:43.459Z,964.06
2017-11-25T04:20:43.449Z,964.00
2017-11-25T04:21:43.432Z,964.05
2017-11-25T04:22:43.428Z,964.04
2017-11-25T04:23:43.414Z,964.00
2017-11-25T04:24:43.407Z,964.02
2017-11-25T04:25:43.387Z,963.99
2017-11-25T04:26:43.375Z,963.98
2017-11-25T04:27:43.377Z,963.97
2017-11-25T04:28:43.361Z,963.90
2017-11-25T04:29:43.344Z,963.90
2017-11-25T04:30:43.339Z,963.83
2017-11-25T04:31:43.321Z,963.85
2017-11-25T04:32:43.312Z,963.89
2017-11-25T04:33:43.304Z,963.88
2017-11-25T04:34:43.290Z,963.89
2017-11-25T04:35:43.276Z,963.87
2017-11-25T04:36:43.269Z,963.87
2017-11-25T04:37:43.265Z,963.85
2017-11-25T04:38:43.254Z,963.73
2017-11-25T04:39:43.237Z,963.72
2017-11-25T04:40:43.232Z,963.74
2017-11-25T04:41:43.215Z,963.66
2017-11-25T04:42:43.204Z,963.64
2017-11-25T04:43:43.201Z,963.56
2017-11-25T04:44:43.194Z,963.55
2017-11-25T04:45:43.170Z,963.51
2017-11-25T04:46:43.161Z,963.50
2017-11-25T04:47:43.150Z,963.56
2017-11-25T04:48:43.142Z,963.60
2017-11-25T04:49:43.128Z,963.54
2017-11-25T04:50:43.121Z,963.51
2017-11-25T04:51:43.108Z,963.45
2017-11-25T04:52:43.101Z,963.44
2017-11-25T04:53:43.094Z,963.37
2017-11-25T04:54:43.073Z,963.37
2017-11-25T04:55:43.066Z,963.34
2017-11-25T04:56:43.057Z,963.36
2017-11-25T04:57:43.045Z,963.39
2017-11-25T04:58:43.045Z,963.35
2017-11-25T04:59:43.024Z,963.29
2017-11-25T05:00:43.018Z,963.23
2017-11-25T05:01:43.008Z,963.23
2017-11-25T05:02:42.986Z,963.28
2017-11-25T05:03:42.977Z,963.28
2017-11-25T05:04:42.972Z,963.35
2017-11-25T05:05:42.961Z,963.37
2017-11-25T05:06:42.955Z,963.40
2017-11-25T05:07:42.933Z,963.39
2017-11-25T05:08:42.919Z,963.41
2017-11-25T05:09:42.912Z,963.41
2017-11-25T05:10:42.902Z,963.33
2017-11-25T05:11:42.891Z,963.27
2017-11-25T05:12:42.889Z,963.33
2017-11-25T05:13:42.867Z,963.37
2017-11-25T05:14:42.861Z,963.37
2017-11-25T05:15:42.847Z,963.37
2017-11-25T05:16:42.846Z,963.41
2017-11-25T05:17:42.824Z,963.41
2017-11-25T05:18:42.813Z,963.42
2017-11-25T05:19:42.801Z,963.45
2017-11-25T05:20:42.791Z,963.54
2017-11-25T05:21:42.780Z,963.54
2017-11-25T05:22:42.773Z,963.47
2017-11-25T05:23:42.772Z,963.42
2017-11-25T05:24:42.752Z,963.41
2017-11-25T05:25:42.746Z,963.36
2017-11-25T05:26:42.728Z,963.36
2017-11-25T05:27:42.728Z,963.41
2017-11-25T05:28:42.731Z,963.36
2017-11-25T05:29:42.694Z,963.32
2017-11-25T05:30:42.689Z,963.28
2017-11-25T05:31:42.671Z,963.33
2017-11-25T05:32:42.661Z,963.36
2017-11-25T05:33:42.650Z,963.46
2017-11-25T05:34:42.654Z,963.45
2017-11-25T05:35:42.636Z,963.49
2017-11-25T05:36:42.620Z,963.55
2017-11-25T05:37:42.607Z,963.61
2017-11-25T05:38:42.602Z,963.58
2017-11-25T05:39:42.585Z,963.60
2017-11-25T05:40:42.581Z,963.57
2017-11-25T05:41:42.576Z,963.63
2017-11-25T05:42:42.550Z,963.60
2017-11-25T05:43:42.540Z,963.70
2017-11-25T05:44:42.529Z,963.69
2017-11-25T05:45:42.520Z,963.70
2017-11-25T05:46:42.507Z,963.75
2017-11-25T05:47:42.499Z,963.67
2017-11-25T05:48:42.488Z,963.70
2017-11-25T05:49:42.477Z,963.77
2017-11-25T05:50:42.474Z,963.77
2017-11-25T05:51:42.470Z,963.76
2017-11-25T05:52:42.444Z,963.76
2017-11-25T05:53:42.447Z,963.80
2017-11-25T05:54:42.421Z,963.85
2017-11-25T05:55:42.409Z,963.85
2017-11-25T05:56:42.400Z,963.91
2017-11-25T05:57:42.392Z,963.95
2017-11-25T05:58:42.383Z,963.94
2017-11-25T05:59:42.378Z,963.89
2017-11-25T06:00:42.357Z,963.90
2017-11-25T06:01:42.344Z,963.85
2017-11-25T06:02:42.332Z,963.80
2017-11-25T06:03:42.322Z,963.84
2017-11-25T06:04:42.312Z,963.89
2017-11-25T06:05:42.309Z,963.91
2017-11-25T06:06:42.288Z,963.86
2017-11-25T06:07:42.284Z,963.89
2017-11-25T06:08:42.266Z,963.96
2017-11-25T06:09:42.257Z,964.00
2017-11-25T06:10:42.244Z,963.98
2017-11-25T06:11:42.243Z,963.88
2017-11-25T06:12:42.232Z,963.88
2017-11-25T06:13:42.226Z,963.95
2017-11-25T06:14:42.208Z,964.00
2017-11-25T06:15:42.192Z,964.06
2017-11-25T06:16:42.180Z,964.14
2017-11-25T06:17:42.169Z,964.24
2017-11-25T06:18:42.158Z,964.25
2017-11-25T06:19:42.162Z,964.32
2017-11-25T06:20:42.140Z,964.40
2017-11-25T06:21:42.125Z,964.50
2017-11-25T06:22:42.120Z,964.48
2017-11-25T06:23:42.116Z,964.52
2017-11-25T06:24:42.099Z,964.47
2017-11-25T06:25:42.091Z,964.50
2017-11-25T06:26:42.079Z,964.51
2017-11-25T06:27:42.095Z,964.55
2017-11-25T06:28:42.058Z,964.62
2017-11-25T06:29:42.058Z,964.58
2017-11-25T06:30:42.024Z,964.67
2017-11-25T06:31:42.018Z,964.53
2017-11-25T06:32:42.008Z,964.64
2017-11-25T06:33:41.999Z,964.52
2017-11-25T06:34:41.985Z,964.66
2017-11-25T06:35:41.976Z,964.61
2017-11-25T06:36:41.966Z,964.70
2017-11-25T06:37:41.955Z,964.77
2017-11-25T06:38:41.938Z,964.75
2017-11-25T06:39:41.926Z,964.83
2017-11-25T06:40:41.915Z,964.85
2017-11-25T06:41:41.896Z,964.83
2017-11-25T06:42:41.890Z,964.89
2017-11-25T06:43:41.876Z,964.85
2017-11-25T06:44:41.870Z,964.92
2017-11-25T06:45:41.849Z,964.95
2017-11-25T06:46:41.870Z,964.94
2017-11-25T06:47:41.830Z,964.98
2017-11-25T06:48:41.820Z,965.00
2017-11-25T06:49:41.814Z,964.99
2017-11-25T06:50:41.793Z,965.07
2017-11-25T06:51:41.781Z,965.13
2017-11-25T06:52:41.766Z,965.05
2017-11-25T06:53:41.762Z,965.16
2017-11-25T06:54:41.751Z,965.20
2017-11-25T06:55:41.737Z,965.19
2017-11-25T06:56:41.720Z,965.18
2017-11-25T06:57:41.708Z,965.20
2017-11-25T06:58:41.703Z,965.26
2017-11-25T06:59:41.689Z,965.24
2017-11-25T07:00:41.679Z,965.30
2017-11-25T07:01:41.661Z,965.28
2017-11-25T07:02:41.652Z,965.32
2017-11-25T07:03:41.636Z,965.34
2017-11-25T07:04:41.627Z,965.40
2017-11-25T07:05:41.624Z,965.41
2017-11-25T07:06:41.600Z,965.42
2017-11-25T07:07:41.598Z,965.43
2017-11-25T07:08:41.579Z,965.46
2017-11-25T07:09:41.568Z,965.51
2017-11-25T07:10:41.559Z,965.53
2017-11-25T07:11:41.544Z,965.52
2017-11-25T07:12:41.531Z,965.51
2017-11-25T07:13:41.521Z,965.53
2017-11-25T07:14:41.506Z,965.53
2017-11-25T07:15:41.503Z,965.53
2017-11-25T07:16:41.490Z,965.56
2017-11-25T07:17:41.472Z,965.60
2017-11-25T07:18:41.465Z,965.63
2017-11-25T07:19:41.450Z,965.68
2017-11-25T07:20:41.442Z,965.70
2017-11-25T07:21:41.423Z,965.78
2017-11-25T07:22:41.411Z,965.82
2017-11-25T07:23:41.408Z,965.85
2017-11-25T07:24:41.394Z,965.85
2017-11-25T07:25:41.377Z,965.90
2017-11-25T07:26:41.369Z,965.80
2017-11-25T07:27:41.361Z,965.95
2017-11-25T07:28:41.344Z,965.95
2017-11-25T07:29:41.337Z,966.06
2017-11-25T07:30:41.317Z,966.00
2017-11-25T07:31:41.304Z,966.07
2017-11-25T07:32:41.306Z,966.10
2017-11-25T07:33:41.293Z,966.03
2017-11-25T07:34:41.270Z,966.14
2017-11-25T07:35:41.264Z,966.17
2017-11-25T07:36:41.251Z,966.14
2017-11-25T07:37:41.242Z,966.20
2017-11-25T07:38:41.236Z,966.16
2017-11-25T07:39:41.216Z,966.21
2017-11-25T07:40:41.206Z,966.30
2017-11-25T07:41:41.201Z,966.16
2017-11-25T07:42:41.177Z,966.22
2017-11-25T07:43:41.163Z,966.20
2017-11-25T07:44:41.161Z,966.10
2017-11-25T07:45:41.147Z,966.11
2017-11-25T07:46:41.127Z,966.10
2017-11-25T07:47:41.128Z,966.07
2017-11-25T07:48:41.103Z,966.19
2017-11-25T07:49:41.090Z,966.20
2017-11-25T07:50:41.078Z,966.24
2017-11-25T07:51:41.079Z,966.27
2017-11-25T07:52:41.055Z,966.30
2017-11-25T07:53:41.041Z,966.30
2017-11-25T07:54:41.031Z,966.34
2017-11-25T07:55:41.033Z,966.27
2017-11-25T07:56:41.008Z,966.38
2017-11-25T07:57:40.994Z,966.44
2017-11-25T07:58:40.983Z,966.42
2017-11-25T07:59:40.975Z,966.55
2017-11-25T08:00:40.958Z,966.52
2017-11-25T08:01:40.948Z,966.54
2017-11-25T08:02:40.940Z,966.55
2017-11-25T08:03:40.929Z,966.60
2017-11-25T08:04:40.911Z,966.58
2017-11-25T08:05:40.900Z,966.58
2017-11-25T08:06:40.887Z,966.59
2017-11-25T08:07:40.884Z,966.54
2017-11-25T08:08:40.870Z,966.59
2017-11-25T08:09:40.850Z,966.61
2017-11-25T08:10:40.837Z,966.65
2017-11-25T08:11:40.825Z,966.61
2017-11-25T08:12:40.821Z,966.67
2017-11-25T08:13:40.800Z,966.69
2017-11-25T08:14:40.802Z,966.71
2017-11-25T08:15:40.790Z,966.78
2017-11-25T08:16:40.765Z,966.81
2017-11-25T08:17:40.760Z,966.82
2017-11-25T08:18:40.741Z,966.87
2017-11-25T08:19:40.728Z,966.87
2017-11-25T08:20:40.721Z,966.92
2017-11-25T08:21:40.702Z,966.91
2017-11-25T08:22:40.691Z,966.89
2017-11-25T08:23:40.688Z,966.92
2017-11-25T08:24:40.665Z,966.93
2017-11-25T08:25:40.661Z,966.99
2017-11-25T08:26:40.652Z,967.01
2017-11-25T08:27:40.632Z,967.08
2017-11-25T08:28:40.626Z,967.14
2017-11-25T08:29:40.612Z,967.17
2017-11-25T08:30:40.594Z,967.21
2017-11-25T08:31:40.581Z,967.22
2017-11-25T08:32:40.569Z,967.23
2017-11-25T08:33:40.572Z,967.23
2017-11-25T08:34:40.547Z,967.21
2017-11-25T08:35:40.534Z,967.20
2017-11-25T08:36:40.528Z,967.21
2017-11-25T08:37:40.519Z,967.21
2017-11-25T08:38:40.504Z,967.25
2017-11-25T08:39:40.509Z,967.28
2017-11-25T08:40:40.471Z,967.33
2017-11-25T08:41:40.464Z,967.35
2017-11-25T08:42:40.453Z,967.38
2017-11-25T08:43:40.445Z,967.39
2017-11-25T08:44:40.423Z,967.43
2017-11-25T08:45:40.410Z,967.42
2017-11-25T08:46:40.404Z,967.47
2017-11-25T08:47:40.392Z,967.50
2017-11-25T08:48:40.381Z,967.53
2017-11-25T08:49:40.364Z,967.54
2017-11-25T08:50:40.351Z,967.61
2017-11-25T08:51:40.342Z,967.60
2017-11-25T08:52:40.334Z,967.58
2017-11-25T08:53:40.323Z,967.65
2017-11-25T08:54:40.306Z,967.59
2017-11-25T08:55:40.290Z,967.62
2017-11-25T08:56:40.287Z,967.65
2017-11-25T08:57:40.272Z,967.66
2017-11-25T08:58:40.266Z,967.64
2017-11-25T08:59:40.239Z,967.71
2017-11-25T09:00:40.228Z,967.75
2017-11-25T09:01:40.217Z,967.79
2017-11-25T09:02:40.205Z,967.78
2017-11-25T09:03:40.201Z,967.80
2017-11-25T09:04:40.181Z,967.80
2017-11-25T09:05:40.167Z,967.86
2017-11-25T09:06:40.165Z,967.86
2017-11-25T09:07:40.150Z,967.85
2017-11-25T09:08:40.138Z,967.90
2017-11-25T09:09:40.124Z,967.90
2017-11-25T09:10:40.121Z,967.94
2017-11-25T09:11:40.095Z,968.01
2017-11-25T09:12:40.087Z,968.06
2017-11-25T09:13:40.070Z,968.07
2017-11-25T09:14:40.062Z,968.14
2017-11-25T09:15:40.057Z,968.13
2017-11-25T09:16:40.032Z,968.13
2017-11-25T09:17:40.034Z,968.19
2017-11-25T09:18:40.007Z,968.22
2017-11-25T09:19:40.005Z,968.24
2017-11-25T09:20:39.990Z,968.20
2017-11-25T09:21:39.972Z,968.27
2017-11-25T09:22:39.963Z,968.30
2017-11-25T09:23:39.958Z,968.31
2017-11-25T09:24:39.941Z,968.36
2017-11-25T09:25:39.919Z,968.34
2017-11-25T09:26:39.915Z,968.42
2017-11-25T09:27:39.903Z,968.40
2017-11-25T09:28:39.883Z,968.43
2017-11-25T09:29:39.882Z,968.44
2017-11-25T09:30:39.871Z,968.45
2017-11-25T09:31:39.850Z,968.51
2017-11-25T09:32:39.836Z,968.60
2017-11-25T09:33:39.834Z,968.53
2017-11-25T09:34:39.813Z,968.59
2017-11-25T09:35:39.801Z,968.58
2017-11-25T09:36:39.781Z,968.56
2017-11-25T09:37:39.771Z,968.59
2017-11-25T09:38:39.770Z,968.61
2017-11-25T09:39:39.742Z,968.64
2017-11-25T09:40:39.741Z,968.65
2017-11-25T09:41:39.720Z,968.65
2017-11-25T09:42:39.716Z,968.68
2017-11-25T09:43:39.691Z,968.64
2017-11-25T09:44:39.685Z,968.73
2017-11-25T09:45:39.668Z,968.76
2017-11-25T09:46:39.653Z,968.79
2017-11-25T09:47:39.641Z,968.83
2017-11-25T09:48:39.634Z,968.84
2017-11-25T09:49:39.629Z,968.86
2017-11-25T09:50:39.610Z,968.89
2017-11-25T09:51:39.596Z,968.91
2017-11-25T09:52:39.579Z,968.93
2017-11-25T09:53:39.572Z,968.90
2017-11-25T09:54:39.570Z,968.93
2017-11-25T09:55:39.547Z,968.91
2017-11-25T09:56:39.528Z,968.92
2017-11-25T09:57:39.515Z,968.96
2017-11-25T09:58:39.500Z,969.01
2017-11-25T09:59:39.494Z,968.99
2017-11-25T10:00:39.483Z,968.96
2017-11-25T10:01:39.464Z,968.98
2017-11-25T10:02:39.456Z,969.01
2017-11-25T10:03:39.439Z,969.01
2017-11-25T10:04:39.427Z,969.09
2017-11-25T10:05:39.413Z,969.08
2017-11-25T10:06:39.400Z,969.06
2017-11-25T10:07:39.396Z,969.07
2017-11-25T10:08:39.384Z,969.12
2017-11-25T10:09:39.369Z,969.07
2017-11-25T10:10:39.355Z,969.09
2017-11-25T10:11:39.350Z,969.10
2017-11-25T10:12:39.335Z,969.14
2017-11-25T10:13:39.315Z,969.10
2017-11-25T10:14:39.299Z,969.19
2017-11-25T10:15:39.287Z,969.21
2017-11-25T10:16:39.282Z,969.21
2017-11-25T10:17:39.260Z,969.23
2017-11-25T10:18:39.252Z,969.22
2017-11-25T10:19:39.233Z,969.27
2017-11-25T10:20:39.253Z,969.24
2017-11-25T10:21:39.210Z,969.28
2017-11-25T10:22:39.198Z,969.25
2017-11-25T10:23:39.192Z,969.27
2017-11-25T10:24:39.171Z,969.28
2017-11-25T10:25:39.171Z,969.23
2017-11-25T10:26:39.145Z,969.30
2017-11-25T10:27:39.150Z,969.36
2017-11-25T10:28:39.132Z,969.36
2017-11-25T10:29:39.120Z,969.32
2017-11-25T10:30:39.092Z,969.36
2017-11-25T10:31:39.096Z,969.45
2017-11-25T10:32:39.068Z,969.45
2017-11-25T10:33:39.057Z,969.45
2017-11-25T10:34:39.040Z,969.47
2017-11-25T10:35:39.032Z,969.49
2017-11-25T10:36:39.023Z,969.51
2017-11-25T10:37:39.011Z,969.49
2017-11-25T10:38:38.990Z,969.52
2017-11-25T10:39:38.977Z,969.51
2017-11-25T10:40:38.977Z,969.52
2017-11-25T10:41:38.950Z,969.55
2017-11-25T10:42:38.938Z,969.49
2017-11-25T10:43:38.923Z,969.50
2017-11-25T10:44:38.924Z,969.51
2017-11-25T10:45:38.898Z,969.58
2017-11-25T10:46:38.884Z,969.62
2017-11-25T10:47:38.871Z,969.62
2017-11-25T10:48:38.858Z,969.65
2017-11-25T10:49:38.861Z,969.64
2017-11-25T10:50:38.834Z,969.68
2017-11-25T10:51:38.821Z,969.72
2017-11-25T10:52:38.824Z,969.69
2017-11-25T10:53:38.796Z,969.74
2017-11-25T10:54:38.781Z,969.73
2017-11-25T10:55:38.775Z,969.75
2017-11-25T10:56:38.762Z,969.76
2017-11-25T10:57:38.748Z,969.75
2017-11-25T10:58:38.788Z,969.76
2017-11-25T10:59:38.741Z,969.74
2017-11-25T11:00:38.711Z,969.74
2017-11-25T11:01:38.693Z,969.75
2017-11-25T11:02:38.682Z,969.79
2017-11-25T11:03:38.664Z,969.75
2017-11-25T11:04:38.660Z,969.75
2017-11-25T11:05:38.640Z,969.76
2017-11-25T11:06:38.627Z,969.75
2017-11-25T11:07:38.619Z,969.81
2017-11-25T11:08:38.599Z,969.79
2017-11-25T11:09:38.591Z,969.82
2017-11-25T11:10:38.580Z,969.80
2017-11-25T11:11:38.575Z,969.80
2017-11-25T11:12:38.551Z,969.83
2017-11-25T11:13:38.545Z,969.84
2017-11-25T11:14:38.523Z,969.87
2017-11-25T11:15:38.510Z,969.83
2017-11-25T11:16:38.500Z,969.86
2017-11-25T11:17:38.486Z,969.85
2017-11-25T11:18:38.469Z,969.83
2017-11-25T11:19:38.457Z,969.78
2017-11-25T11:20:38.453Z,969.83
2017-11-25T11:21:38.437Z,969.86
2017-11-25T11:22:38.419Z,969.85
2017-11-25T11:23:38.405Z,969.83
2017-11-25T11:24:38.404Z,969.82
2017-11-25T11:25:38.409Z,969.85
2017-11-25T11:26:38.372Z,969.83
2017-11-25T11:27:38.379Z,969.82
2017-11-25T11:28:38.352Z,969.84
2017-11-25T11:29:38.327Z,969.87
2017-11-25T11:30:38.323Z,969.87
2017-11-25T11:31:38.313Z,969.90
2017-11-25T11:32:38.293Z,969.96
2017-11-25T11:33:38.276Z,969.99
2017-11-25T11:34:38.271Z,970.03
2017-11-25T11:35:38.258Z,970.06
2017-11-25T11:36:38.238Z,970.02
2017-11-25T11:37:38.224Z,970.03
2017-11-25T11:38:38.211Z,969.96
2017-11-25T11:39:38.205Z,969.93
2017-11-25T11:40:38.184Z,969.90
2017-11-25T11:41:38.178Z,969.96
2017-11-25T11:42:38.162Z,969.90
2017-11-25T11:43:38.155Z,969.95
2017-11-25T11:44:38.139Z,970.05
2017-11-25T11:45:38.124Z,970.07
2017-11-25T11:46:38.115Z,970.04
2017-11-25T11:47:38.102Z,970.09
2017-11-25T11:48:38.079Z,970.06
2017-11-25T11:49:38.074Z,970.03
2017-11-25T11:50:38.064Z,970.02
2017-11-25T11:51:38.038Z,970.04
2017-11-25T11:52:38.037Z,970.02
2017-11-25T11:53:38.013Z,970.00
2017-11-25T11:54:38.000Z,970.03
2017-11-25T11:55:37.989Z,970.05
2017-11-25T11:56:37.978Z,970.04
2017-11-25T11:57:37.971Z,970.08
2017-11-25T11:58:37.947Z,970.16
2017-11-25T11:59:37.952Z,970.07
2017-11-25T12:00:37.927Z,970.11
2017-11-25T12:01:37.917Z,970.16
2017-11-25T12:02:37.899Z,970.19
2017-11-25T12:03:37.885Z,970.18
2017-11-25T12:04:37.867Z,970.22
2017-11-25T12:05:37.915Z,970.19
2017-11-25T12:06:37.862Z,970.13
2017-11-25T12:07:37.840Z,970.13
2017-11-25T12:08:37.824Z,970.09
2017-11-25T12:09:37.803Z,970.07
2017-11-25T12:10:37.797Z,970.07
2017-11-25T12:11:37.776Z,970.04
2017-11-25T12:12:37.772Z,970.01
2017-11-25T12:13:37.749Z,969.99
2017-11-25T12:14:37.746Z,969.92
2017-11-25T12:15:37.734Z,969.95
2017-11-25T12:16:37.712Z,969.95
2017-11-25T12:17:37.696Z,969.91
2017-11-25T12:18:37.702Z,969.97
2017-11-25T12:19:37.669Z,969.99
2017-11-25T12:20:37.657Z,969.95
2017-11-25T12:21:37.651Z,969.97
2017-11-25T12:22:37.639Z,969.94
2017-11-25T12:23:37.620Z,969.89
2017-11-25T12:24:37.610Z,969.89
2017-11-25T12:25:37.592Z,969.92
2017-11-25T12:26:37.592Z,969.88
2017-11-25T12:27:37.568Z,969.88
2017-11-25T12:28:37.560Z,969.94